Time;durP1;ratioP1;P1;durP2;ratioP2;P2;SDS_P1;SDS_P2;PMS_P1;PMS_P2;Temp;Humidity;BMP_temperature;BMP_pressure;BME280_temperature;BME280_humidity;BME280_pressure;Samples;Min_cycle;Max_cycle;Signal;HPM_P1;HPM_P2
2023/04/07 00:00:24;;;;;;;16.50;11.38;;;9.00;99.90;;;;;;4977632;28;20223;-41
2023/04/07 00:02:49;;;;;;;16.33;11.55;;;9.00;99.90;;;;;;4972380;28;20177;-43
2023/04/07 00:05:15;;;;;;;19.10;11.65;;;9.00;99.90;;;;;;4972448;28;20165;-41
2023/04/07 00:07:40;;;;;;;16.33;11.68;;;8.90;99.90;;;;;;4971880;28;20629;-41
2023/04/07 00:10:07;;;;;;;19.25;13.07;;;9.00;99.90;;;;;;4972700;28;20184;-42
2023/04/07 00:12:33;;;;;;;18.05;13.40;;;9.00;99.90;;;;;;4972844;28;20184;-41
2023/04/07 00:14:58;;;;;;;18.05;12.68;;;9.00;99.90;;;;;;4972477;28;20177;-41
2023/04/07 00:17:24;;;;;;;21.60;14.52;;;9.00;99.90;;;;;;4972114;28;20209;-41
2023/04/07 00:19:49;;;;;;;18.08;13.25;;;9.00;99.90;;;;;;4973014;28;20182;-41
2023/04/07 00:22:15;;;;;;;18.17;13.52;;;9.00;99.90;;;;;;4986008;28;20271;-41
2023/04/07 00:24:41;;;;;;;16.92;11.50;;;8.90;99.90;;;;;;4991565;28;20251;-41
2023/04/07 00:27:06;;;;;;;13.43;10.00;;;8.90;99.90;;;;;;4992080;28;20172;-41
2023/04/07 00:29:32;;;;;;;15.70;11.57;;;9.00;99.90;;;;;;4991879;28;20177;-41
2023/04/07 00:31:57;;;;;;;16.17;12.23;;;9.00;99.90;;;;;;4991627;28;20220;-40
2023/04/07 00:34:23;;;;;;;15.10;12.13;;;9.00;99.90;;;;;;4991408;28;20177;-41
2023/04/07 00:36:51;;;;;;;14.68;11.85;;;9.10;99.90;;;;;;4990046;28;20287;-41
2023/04/07 00:39:17;;;;;;;14.65;10.48;;;9.10;99.90;;;;;;4991505;28;20187;-41
2023/04/07 00:41:44;;;;;;;13.95;10.45;;;9.10;99.90;;;;;;4974881;28;20542;-41
2023/04/07 00:44:10;;;;;;;15.50;11.05;;;9.10;99.90;;;;;;4951882;28;20170;-41
2023/04/07 00:46:35;;;;;;;14.65;10.82;;;9.10;99.90;;;;;;4952993;28;20261;-42
2023/04/07 00:49:01;;;;;;;18.42;12.80;;;9.10;99.90;;;;;;4952439;28;20193;-42
2023/04/07 00:51:27;;;;;;;24.58;13.25;;;9.10;99.90;;;;;;4952393;28;20174;-41
2023/04/07 00:53:53;;;;;;;18.85;13.32;;;9.10;99.90;;;;;;4952376;28;20178;-41
2023/04/07 00:56:19;;;;;;;15.38;11.88;;;9.10;99.90;;;;;;4952290;28;20208;-41
2023/04/07 00:58:45;;;;;;;17.55;12.27;;;9.20;99.90;;;;;;4952408;28;20253;-41
2023/04/07 01:01:39;;;;;;;15.50;12.63;;;9.20;99.90;;;;;;4952573;28;20174;-42
2023/04/07 01:04:11;;;;;;;22.40;13.55;;;9.20;99.90;;;;;;4952878;28;20240;-41
2023/04/07 01:06:42;;;;;;;20.90;14.30;;;9.10;99.90;;;;;;4952270;28;20232;-41
2023/04/07 01:09:18;;;;;;;25.25;15.85;;;9.20;99.90;;;;;;4951978;28;20320;-41
2023/04/07 01:11:55;;;;;;;23.88;15.95;;;9.20;99.90;;;;;;4966639;28;20165;-41
2023/04/07 01:14:22;;;;;;;25.23;17.13;;;9.10;99.90;;;;;;4990667;28;20176;-41
2023/04/07 01:16:54;;;;;;;24.67;17.38;;;9.10;99.90;;;;;;4990728;28;20211;-41
2023/04/07 01:19:35;;;;;;;30.85;18.58;;;9.20;99.90;;;;;;4990747;28;20177;-41
2023/04/07 01:22:05;;;;;;;26.48;18.65;;;9.10;99.90;;;;;;4990622;28;20758;-42
2023/04/07 01:25:10;;;;;;;29.42;19.98;;;9.10;99.90;;;;;;4990648;28;20177;-41
2023/04/07 01:27:47;;;;;;;28.48;18.95;;;9.10;99.90;;;;;;5003743;28;20648;-42
2023/04/07 01:30:15;;;;;;;28.08;17.88;;;9.20;99.90;;;;;;4990738;28;20251;-43
2023/04/07 01:32:45;;;;;;;29.25;18.60;;;9.10;99.90;;;;;;4990549;28;20179;-44
2023/04/07 01:35:13;;;;;;;33.67;20.60;;;9.20;99.90;;;;;;4989263;28;20169;-45
2023/04/07 01:37:39;;;;;;;32.05;19.83;;;9.10;99.90;;;;;;4989070;28;20217;-44
2023/04/07 01:40:07;;;;;;;31.55;20.25;;;9.10;99.90;;;;;;4990702;28;20529;-44
2023/04/07 01:42:35;;;;;;;30.52;21.02;;;9.20;99.90;;;;;;4976771;28;20508;-44
2023/04/07 01:45:01;;;;;;;33.20;19.83;;;9.20;99.90;;;;;;4971044;28;20604;-45
2023/04/07 01:47:31;;;;;;;28.98;18.13;;;9.10;99.90;;;;;;4970811;28;20189;-45
2023/04/07 01:50:00;;;;;;;30.80;18.55;;;9.20;99.90;;;;;;4970822;28;20528;-45
2023/04/07 01:52:27;;;;;;;29.63;19.63;;;9.20;99.90;;;;;;4970797;28;20172;-41
2023/04/07 01:54:53;;;;;;;34.05;20.50;;;9.10;99.90;;;;;;4970734;28;20177;-41
2023/04/07 01:57:19;;;;;;;33.55;21.08;;;9.20;99.90;;;;;;4970565;28;20305;-41
2023/04/07 01:59:45;;;;;;;36.78;20.73;;;9.10;99.90;;;;;;4970822;28;20245;-41
2023/04/07 02:02:10;;;;;;;37.25;21.15;;;9.20;99.90;;;;;;4970691;28;20206;-41
2023/04/07 02:04:52;;;;;;;36.17;22.38;;;9.20;99.90;;;;;;4971924;28;20280;-41
2023/04/07 02:07:23;;;;;;;37.08;20.60;;;9.20;99.90;;;;;;4970883;28;20174;-42
2023/04/07 02:09:53;;;;;;;31.35;20.45;;;9.10;99.90;;;;;;4970354;28;20217;-41
2023/04/07 02:12:20;;;;;;;29.88;18.75;;;9.10;99.90;;;;;;4970572;28;20180;-41
2023/04/07 02:14:46;;;;;;;35.15;20.42;;;9.10;99.90;;;;;;4970450;28;20262;-41
2023/04/07 02:17:14;;;;;;;36.13;21.55;;;9.10;99.90;;;;;;4970364;28;20211;-41
2023/04/07 02:19:41;;;;;;;30.50;20.33;;;9.10;99.90;;;;;;4970798;28;20207;-41
2023/04/07 02:22:08;;;;;;;32.92;19.33;;;9.10;99.90;;;;;;4970348;28;20169;-41
2023/04/07 02:24:33;;;;;;;34.28;19.63;;;9.10;99.90;;;;;;4970726;28;20169;-42
2023/04/07 02:27:00;;;;;;;36.13;21.13;;;9.10;99.90;;;;;;4970259;28;20264;-45
2023/04/07 02:29:26;;;;;;;36.75;22.48;;;9.10;99.90;;;;;;4970260;28;20866;-43
2023/04/07 02:31:52;;;;;;;33.80;19.85;;;9.10;99.90;;;;;;4970223;28;20222;-41
2023/04/07 02:34:17;;;;;;;36.80;21.90;;;9.10;99.90;;;;;;4983586;28;20261;-41
2023/04/07 02:36:43;;;;;;;37.10;21.50;;;9.10;99.90;;;;;;4989562;28;20215;-41
2023/04/07 02:39:09;;;;;;;35.45;21.55;;;;;;;;;;4989876;28;20173;-41
2023/04/07 02:41:35;;;;;;;38.90;22.05;;;9.10;99.90;;;;;;4990245;28;20180;-41
2023/04/07 02:44:00;;;;;;;33.92;20.83;;;9.00;99.90;;;;;;4989751;28;20256;-41
2023/04/07 02:46:26;;;;;;;35.90;20.13;;;9.10;99.90;;;;;;4989501;28;20172;-42
2023/04/07 02:48:51;;;;;;;31.27;19.60;;;9.00;99.90;;;;;;4989458;28;20176;-41
2023/04/07 02:51:17;;;;;;;37.97;19.23;;;9.10;99.90;;;;;;4989664;28;20164;-41
2023/04/07 02:53:42;;;;;;;29.90;17.88;;;9.00;99.90;;;;;;4989675;28;20173;-41
2023/04/07 02:56:08;;;;;;;33.13;20.58;;;9.10;99.90;;;;;;4989340;28;20725;-41
2023/04/07 02:58:33;;;;;;;34.58;21.55;;;9.10;99.90;;;;;;4989679;28;20633;-41
2023/04/07 03:00:59;;;;;;;33.28;21.40;;;9.10;99.90;;;;;;4989263;28;20546;-41
2023/04/07 03:03:25;;;;;;;31.88;19.25;;;9.00;99.90;;;;;;4979873;28;20599;-41
2023/04/07 03:05:50;;;;;;;30.75;19.05;;;8.90;99.90;;;;;;4981989;28;20173;-41
2023/04/07 03:08:16;;;;;;;34.22;20.80;;;9.00;99.90;;;;;;4992400;28;20228;-41
2023/04/07 03:10:42;;;;;;;29.27;18.42;;;9.00;99.90;;;;;;4992683;28;20173;-41
2023/04/07 03:13:08;;;;;;;29.60;17.63;;;9.00;99.90;;;;;;4992876;28;20176;-41
2023/04/07 03:15:34;;;;;;;34.85;19.35;;;9.00;99.90;;;;;;5027844;28;20589;-42
2023/04/07 03:18:00;;;;;;;35.55;20.92;;;9.00;99.90;;;;;;5075129;28;20189;-41
2023/04/07 03:20:26;;;;;;;33.53;19.30;;;8.90;99.90;;;;;;5075058;28;20158;-41
2023/04/07 03:22:51;;;;;;;33.30;19.75;;;9.00;99.90;;;;;;5075133;28;20207;-41
2023/04/07 03:25:17;;;;;;;34.10;20.45;;;8.90;99.90;;;;;;5075291;28;20170;-41
2023/04/07 03:27:42;;;;;;;33.92;20.88;;;9.00;99.90;;;;;;5075106;28;20169;-41
2023/04/07 03:30:08;;;;;;;33.63;20.55;;;9.00;99.90;;;;;;5075082;28;20185;-42
2023/04/07 03:32:34;;;;;;;33.50;20.10;;;8.90;99.90;;;;;;5064352;28;20189;-41
2023/04/07 03:35:00;;;;;;;38.40;22.20;;;;;;;;;;4991131;28;20203;-41
2023/04/07 03:37:25;;;;;;;35.25;20.90;;;8.90;99.90;;;;;;4991766;28;20788;-41
2023/04/07 03:39:51;;;;;;;35.20;20.45;;;8.90;99.90;;;;;;4991856;28;20179;-41
2023/04/07 03:42:17;;;;;;;39.97;21.58;;;;;;;;;;4991654;28;20599;-41
2023/04/07 03:44:42;;;;;;;38.55;21.13;;;8.90;99.90;;;;;;4991547;28;20523;-42
2023/04/07 03:47:08;;;;;;;33.10;20.60;;;8.90;99.90;;;;;;4991553;28;20173;-41
2023/04/07 03:49:36;;;;;;;34.80;20.38;;;8.80;99.90;;;;;;4991862;28;20256;-42
2023/04/07 03:52:01;;;;;;;30.60;19.55;;;8.80;99.90;;;;;;4991790;28;20252;-41
2023/04/07 03:54:27;;;;;;;37.05;22.08;;;8.90;99.90;;;;;;4991603;28;20307;-41
2023/04/07 03:56:53;;;;;;;30.77;20.30;;;;;;;;;;4991392;28;20680;-41
2023/04/07 03:59:19;;;;;;;31.88;19.52;;;;;;;;;;4991401;28;20527;-42
2023/04/07 04:01:44;;;;;;;35.40;21.92;;;8.90;99.90;;;;;;4991298;28;20173;-41
2023/04/07 04:04:10;;;;;;;42.15;21.38;;;;;;;;;;4975487;28;20177;-41
2023/04/07 04:06:36;;;;;;;38.28;20.40;;;;;;;;;;4971467;28;20177;-42
2023/04/07 04:09:02;;;;;;;28.85;18.40;;;8.80;99.90;;;;;;4971940;28;20567;-41
2023/04/07 04:11:27;;;;;;;23.25;15.75;;;8.80;99.90;;;;;;4971838;28;20181;-41
2023/04/07 04:13:53;;;;;;;25.23;15.32;;;8.70;99.90;;;;;;4971679;28;20168;-41
2023/04/07 04:16:18;;;;;;;28.65;14.98;;;8.70;99.90;;;;;;4971608;28;20685;-41
2023/04/07 04:18:44;;;;;;;22.73;14.50;;;8.70;99.90;;;;;;4970540;28;20211;-41
2023/04/07 04:21:10;;;;;;;18.45;12.68;;;8.70;99.90;;;;;;4971581;28;20165;-41
2023/04/07 04:23:35;;;;;;;21.88;13.07;;;8.70;99.90;;;;;;4971943;28;20180;-42
2023/04/07 04:26:02;;;;;;;21.40;12.85;;;8.70;99.90;;;;;;4971726;28;20264;-41
2023/04/07 04:28:28;;;;;;;20.15;13.02;;;8.70;99.90;;;;;;4970572;28;20181;-41
2023/04/07 04:30:54;;;;;;;21.17;12.32;;;8.60;99.90;;;;;;4971410;28;20225;-41
2023/04/07 04:33:20;;;;;;;18.80;11.27;;;;;;;;;;4981095;28;20208;-41
2023/04/07 04:35:46;;;;;;;17.70;12.40;;;8.60;99.90;;;;;;4990820;28;20274;-41
2023/04/07 04:38:11;;;;;;;18.42;11.50;;;8.70;99.90;;;;;;4990808;28;20679;-41
2023/04/07 04:40:37;;;;;;;16.60;11.60;;;8.70;99.90;;;;;;4990597;28;20177;-41
2023/04/07 04:43:06;;;;;;;20.60;12.60;;;;;;;;;;4991051;28;20171;-41
2023/04/07 04:45:32;;;;;;;17.70;10.25;;;8.70;99.90;;;;;;4991101;28;20169;-41
2023/04/07 04:47:57;;;;;;;17.80;12.07;;;8.70;99.90;;;;;;4990499;28;20176;-41
2023/04/07 04:50:23;;;;;;;16.90;11.80;;;8.60;99.90;;;;;;4990644;28;20173;-41
2023/04/07 04:52:49;;;;;;;16.63;11.70;;;;;;;;;;4990422;28;20208;-41
2023/04/07 04:55:14;;;;;;;18.42;11.15;;;8.70;99.90;;;;;;4990537;28;20169;-41
2023/04/07 04:57:40;;;;;;;19.55;11.48;;;8.60;99.90;;;;;;4990420;28;20219;-41
2023/04/07 05:00:07;;;;;;;20.05;10.80;;;8.60;99.90;;;;;;4990675;28;20636;-41
2023/04/07 05:02:33;;;;;;;18.05;11.90;;;8.60;99.90;;;;;;4985591;28;20220;-41
2023/04/07 05:04:59;;;;;;;18.95;10.82;;;;;;;;;;4970885;28;20628;-41
2023/04/07 05:07:25;;;;;;;20.80;11.00;;;;;;;;;;4970909;28;20754;-41
2023/04/07 05:09:51;;;;;;;16.70;8.93;;;;;;;;;;4970826;28;20259;-41
2023/04/07 05:12:17;;;;;;;14.63;10.15;;;;;;;;;;4970828;28;20181;-40
2023/04/07 05:14:42;;;;;;;14.40;10.07;;;8.60;99.90;;;;;;4970882;28;20165;-41
2023/04/07 05:17:08;;;;;;;14.93;9.63;;;8.60;99.90;;;;;;4970582;28;20572;-41
2023/04/07 05:19:33;;;;;;;15.23;8.98;;;8.70;99.90;;;;;;4971003;28;20173;-41
2023/04/07 05:21:59;;;;;;;13.98;9.93;;;8.60;99.90;;;;;;4970408;28;20173;-41
2023/04/07 05:24:28;;;;;;;15.70;9.43;;;8.60;99.90;;;;;;4970734;28;20178;-41
2023/04/07 05:26:55;;;;;;;17.42;9.35;;;8.50;99.90;;;;;;4970459;28;20180;-41
2023/04/07 05:29:21;;;;;;;14.75;9.52;;;8.60;99.90;;;;;;4970158;28;20170;-41
2023/04/07 05:31:47;;;;;;;15.05;9.95;;;;;;;;;;4970406;28;20261;-41
2023/04/07 05:34:13;;;;;;;10.45;7.93;;;8.60;99.90;;;;;;4989184;28;20284;-41
2023/04/07 05:36:39;;;;;;;11.98;8.20;;;8.60;99.90;;;;;;4989772;28;20299;-41
2023/04/07 05:39:05;;;;;;;14.07;8.15;;;;;;;;;;4990015;28;20534;-42
2023/04/07 05:41:30;;;;;;;14.60;8.60;;;8.60;99.90;;;;;;4988836;28;20264;-41
2023/04/07 05:43:56;;;;;;;12.27;8.70;;;8.60;99.90;;;;;;4989661;28;20536;-41
2023/04/07 05:46:21;;;;;;;13.20;8.40;;;8.50;99.90;;;;;;4989724;28;20183;-41
2023/04/07 05:48:47;;;;;;;12.75;7.22;;;8.60;99.90;;;;;;4989837;28;20199;-41
2023/04/07 05:51:14;;;;;;;10.23;7.25;;;;;;;;;;4986878;28;20180;-41
2023/04/07 05:53:40;;;;;;;11.10;7.10;;;;;;;;;;4970450;28;20177;-41
2023/04/07 05:56:06;;;;;;;12.25;7.40;;;;;;;;;;4968980;28;20205;-41
2023/04/07 05:58:31;;;;;;;10.05;7.10;;;8.60;99.90;;;;;;4970546;28;20656;-41
2023/04/07 06:00:57;;;;;;;9.13;6.22;;;8.60;99.90;;;;;;4970385;28;20612;-41
2023/04/07 06:03:23;;;;;;;9.68;6.55;;;8.60;99.90;;;;;;4970043;28;20170;-41
2023/04/07 06:05:48;;;;;;;12.88;7.50;;;8.50;99.90;;;;;;4970014;28;20172;-41
2023/04/07 06:08:15;;;;;;;11.02;7.13;;;;;;;;;;4977454;28;20212;-41
2023/04/07 06:10:40;;;;;;;11.35;7.30;;;8.70;99.90;;;;;;4989262;28;20173;-42
2023/04/07 06:13:06;;;;;;;11.07;7.90;;;8.70;99.90;;;;;;4989522;28;20230;-42
2023/04/07 06:15:32;;;;;;;11.52;7.63;;;8.60;99.90;;;;;;4989354;28;20566;-41
2023/04/07 06:17:58;;;;;;;13.30;7.90;;;8.70;99.90;;;;;;4989619;28;20176;-41
2023/04/07 06:20:24;;;;;;;17.52;8.43;;;8.70;99.90;;;;;;4989280;28;20527;-41
2023/04/07 06:22:49;;;;;;;15.48;9.57;;;8.60;99.90;;;;;;4989200;28;20173;-41
2023/04/07 06:25:15;;;;;;;18.98;10.05;;;8.60;99.90;;;;;;4989427;28;20173;-41
2023/04/07 06:27:41;;;;;;;14.93;9.45;;;;;;;;;;4989359;28;20211;-41
2023/04/07 06:30:07;;;;;;;16.08;9.57;;;8.70;99.90;;;;;;4988829;28;20473;-41
2023/04/07 06:32:33;;;;;;;14.63;9.68;;;8.80;99.90;;;;;;4989266;28;20735;-43
2023/04/07 06:34:59;;;;;;;12.20;8.40;;;8.70;99.90;;;;;;4989099;28;20251;-41
2023/04/07 06:37:24;;;;;;;14.75;8.50;;;8.70;99.90;;;;;;4987953;28;20296;-41
2023/04/07 06:39:50;;;;;;;12.02;8.70;;;8.70;99.90;;;;;;4969486;28;20239;-41
2023/04/07 06:42:16;;;;;;;13.07;8.32;;;8.70;99.90;;;;;;4968449;28;20170;-41
2023/04/07 06:44:42;;;;;;;14.02;8.48;;;;;;;;;;4969497;28;20618;-45
2023/04/07 06:47:08;;;;;;;12.55;7.80;;;8.80;99.90;;;;;;4969419;28;20294;-45
2023/04/07 06:49:34;;;;;;;13.20;7.47;;;8.70;99.90;;;;;;4969599;28;20177;-45
2023/04/07 06:51:59;;;;;;;11.48;7.22;;;8.80;99.90;;;;;;4969435;28;20196;-44
2023/04/07 06:54:25;;;;;;;10.23;7.13;;;8.90;99.90;;;;;;4969253;28;20743;-44
2023/04/07 06:56:50;;;;;;;10.68;7.07;;;8.90;99.90;;;;;;4969184;28;20640;-45
2023/04/07 06:59:16;;;;;;;9.10;7.53;;;8.90;99.90;;;;;;4969381;28;20162;-45
2023/04/07 07:01:42;;;;;;;11.02;7.15;;;8.90;99.90;;;;;;4969696;28;20174;-43
2023/04/07 07:04:08;;;;;;;12.68;7.97;;;8.90;99.90;;;;;;4969142;28;20199;-41
2023/04/07 07:06:34;;;;;;;11.32;6.90;;;9.00;99.90;;;;;;4969544;28;20174;-42
2023/04/07 07:09:01;;;;;;;10.98;7.20;;;9.00;99.90;;;;;;4984461;28;20216;-42
2023/04/07 07:11:27;;;;;;;12.40;7.53;;;9.00;99.90;;;;;;4988341;28;20629;-42
2023/04/07 07:13:53;;;;;;;10.60;7.18;;;;;;;;;;4988186;28;20173;-42
2023/04/07 07:16:19;;;;;;;11.50;6.45;;;9.00;99.90;;;;;;4988308;28;20212;-42
2023/04/07 07:18:44;;;;;;;8.98;6.60;;;9.00;99.90;;;;;;4988323;28;20230;-41
2023/04/07 07:21:10;;;;;;;10.57;6.85;;;;;;;;;;4988248;28;20180;-41
2023/04/07 07:23:36;;;;;;;9.65;6.55;;;9.10;99.90;;;;;;4988385;28;20169;-41
2023/04/07 07:26:03;;;;;;;10.85;6.75;;;9.10;99.90;;;;;;4988612;28;20169;-41
2023/04/07 07:28:29;;;;;;;12.40;6.15;;;9.00;99.90;;;;;;4988213;28;20172;-42
2023/04/07 07:30:55;;;;;;;9.85;6.88;;;;;;;;;;4988233;28;20165;-41
2023/04/07 07:33:21;;;;;;;11.07;6.72;;;;;;;;;;4988377;28;20176;-43
2023/04/07 07:35:47;;;;;;;13.60;7.07;;;9.00;99.90;;;;;;4988514;28;20173;-41
2023/04/07 07:38:13;;;;;;;10.85;6.30;;;;;;;;;;4977647;28;20199;-43
2023/04/07 07:40:39;;;;;;;11.40;7.13;;;9.10;99.90;;;;;;4968760;28;20239;-41
2023/04/07 07:43:05;;;;;;;8.57;6.20;;;;;;;;;;4969093;28;20177;-41
2023/04/07 07:45:31;;;;;;;11.90;6.85;;;9.00;99.90;;;;;;4969114;28;20169;-44
2023/04/07 07:47:56;;;;;;;12.77;6.88;;;9.10;99.90;;;;;;4968789;28;20169;-45
2023/04/07 07:50:22;;;;;;;11.38;6.50;;;9.00;99.90;;;;;;4968659;28;20201;-44
2023/04/07 07:52:48;;;;;;;10.65;6.28;;;9.00;99.90;;;;;;4969849;28;20170;-44
2023/04/07 07:55:13;;;;;;;12.20;6.35;;;9.00;99.90;;;;;;4970741;28;20526;-44
2023/04/07 07:57:39;;;;;;;12.65;6.72;;;;;;;;;;4971812;28;20209;-45
2023/04/07 08:00:05;;;;;;;12.80;7.10;;;9.20;99.90;;;;;;4971772;28;20514;-41
2023/04/07 08:02:32;;;;;;;11.80;6.75;;;9.30;99.90;;;;;;4972264;28;20664;-41
2023/04/07 08:04:58;;;;;;;8.38;6.22;;;9.20;99.90;;;;;;4971881;28;20184;-43
2023/04/07 08:07:24;;;;;;;12.38;6.32;;;;;;;;;;4973854;28;20166;-41
2023/04/07 08:09:50;;;;;;;11.68;6.53;;;9.30;99.90;;;;;;4990678;28;20819;-41
2023/04/07 08:12:16;;;;;;;8.75;5.70;;;;;;;;;;4991240;28;20550;-41
2023/04/07 08:14:41;;;;;;;11.55;6.18;;;9.30;99.90;;;;;;4991029;28;20639;-43
2023/04/07 08:17:07;;;;;;;10.85;5.63;;;9.50;99.90;;;;;;4991123;28;20204;-41
2023/04/07 08:19:32;;;;;;;9.88;5.68;;;9.50;99.90;;;;;;4991212;28;20169;-43
2023/04/07 08:21:58;;;;;;;9.13;5.80;;;;;;;;;;4990911;28;20735;-43
2023/04/07 08:24:24;;;;;;;8.00;6.32;;;9.60;99.90;;;;;;4990883;28;20492;-42
2023/04/07 08:26:49;;;;;;;8.18;5.95;;;9.60;99.90;;;;;;4990980;28;20175;-44
2023/04/07 08:29:15;;;;;;;8.43;6.07;;;9.70;99.90;;;;;;4990807;28;20282;-42
2023/04/07 08:31:40;;;;;;;9.40;5.63;;;9.80;99.90;;;;;;4990826;28;20214;-42
2023/04/07 08:34:06;;;;;;;7.55;5.85;;;9.70;99.90;;;;;;4990721;28;20503;-41
2023/04/07 08:36:32;;;;;;;9.00;5.38;;;9.70;99.90;;;;;;4991066;28;20547;-42
2023/04/07 08:39:00;;;;;;;8.68;5.40;;;;;;;;;;4973212;28;20181;-43
2023/04/07 08:41:35;;;;;;;6.90;4.97;;;9.80;99.90;;;;;;4971237;28;20223;-42
2023/04/07 08:44:02;;;;;;;10.05;5.88;;;9.70;99.90;;;;;;4971518;28;20268;-44
2023/04/07 08:46:28;;;;;;;11.15;6.25;;;9.70;99.90;;;;;;4971022;28;20250;-42
2023/04/07 08:48:55;;;;;;;8.35;5.72;;;9.80;99.90;;;;;;4971126;28;20231;-42
2023/04/07 08:51:31;;;;;;;9.38;5.93;;;9.90;99.90;;;;;;4971127;28;20172;-41
2023/04/07 08:54:05;;;;;;;10.23;6.22;;;9.90;99.90;;;;;;4972145;28;20169;-42
2023/04/07 08:56:36;;;;;;;10.02;6.35;;;9.90;99.90;;;;;;4990473;28;20564;-41
2023/04/07 08:59:02;;;;;;;10.52;6.38;;;9.90;99.90;;;;;;4990756;28;20644;-41
2023/04/07 09:01:29;;;;;;;10.55;5.65;;;10.00;99.90;;;;;;4990320;28;20172;-42
2023/04/07 09:03:56;;;;;;;10.63;7.38;;;10.00;99.90;;;;;;4990123;28;20173;-41
2023/04/07 09:06:23;;;;;;;12.73;7.05;;;;;;;;;;4990403;28;20177;-41
2023/04/07 09:08:49;;;;;;;12.93;6.65;;;;;;;;;;4990129;28;20216;-42
2023/04/07 09:11:15;;;;;;;14.00;7.32;;;;;;;;;;4990295;28;20256;-41
2023/04/07 09:13:41;;;;;;;10.98;7.72;;;;;;;;;;4990323;28;20165;-45
2023/04/07 09:16:07;;;;;;;15.38;7.95;;;;;;;;;;4989952;28;20597;-44
2023/04/07 09:18:33;;;;;;;14.65;8.15;;;9.70;99.90;;;;;;4990461;28;20173;-44
2023/04/07 09:21:04;;;;;;;11.68;8.45;;;9.70;99.90;;;;;;4990435;28;20169;-44
2023/04/07 09:23:31;;;;;;;15.13;8.48;;;9.80;99.90;;;;;;4990661;28;20303;-44
2023/04/07 09:26:27;;;;;;;13.30;8.07;;;9.70;99.90;;;;;;4988650;28;20180;-43
2023/04/07 09:28:54;;;;;;;13.60;9.00;;;9.70;99.90;;;;;;4970461;28;20181;-44
2023/04/07 09:31:50;;;;;;;13.82;8.82;;;9.70;99.90;;;;;;4970703;28;20589;-44
2023/04/07 09:34:27;;;;;;;14.25;9.10;;;9.70;99.90;;;;;;4970520;28;20635;-44
2023/04/07 09:36:53;;;;;;;13.20;9.15;;;9.60;99.90;;;;;;4970758;28;20217;-44
2023/04/07 09:39:19;;;;;;;15.43;9.20;;;9.70;99.90;;;;;;4970399;28;20173;-44
2023/04/07 09:41:45;;;;;;;16.42;8.88;;;9.60;99.90;;;;;;4970473;28;20176;-43
2023/04/07 09:44:10;;;;;;;17.42;10.13;;;9.70;99.90;;;;;;4970454;28;20176;-44
2023/04/07 09:46:50;;;;;;;15.57;9.32;;;9.60;99.90;;;;;;4970396;28;20173;-44
2023/04/07 09:49:16;;;;;;;18.67;9.63;;;;;;;;;;4970581;28;20227;-44
2023/04/07 09:51:56;;;;;;;22.50;10.05;;;9.50;99.90;;;;;;4970233;28;20596;-45
2023/04/07 09:54:36;;;;;;;16.33;10.15;;;9.60;99.90;;;;;;4970714;28;20209;-42
2023/04/07 09:57:03;;;;;;;19.08;11.00;;;;;;;;;;4970268;28;20212;-41
2023/04/07 09:59:30;;;;;;;22.45;11.10;;;9.60;99.90;;;;;;4970294;28;20227;-41
2023/04/07 10:01:56;;;;;;;19.42;10.25;;;;;;;;;;4970051;28;20175;-41
2023/04/07 10:04:23;;;;;;;18.58;11.02;;;9.50;99.90;;;;;;4969821;28;20170;-41
2023/04/07 10:06:49;;;;;;;19.65;10.20;;;9.40;99.90;;;;;;4969852;28;20174;-41
2023/04/07 10:09:16;;;;;;;18.65;11.30;;;9.40;99.90;;;;;;4969579;28;20270;-42
2023/04/07 10:11:42;;;;;;;17.63;11.43;;;9.50;99.90;;;;;;4969890;28;20675;-41
2023/04/07 10:14:11;;;;;;;20.80;11.15;;;9.50;99.90;;;;;;4969677;28;20170;-41
2023/04/07 10:16:38;;;;;;;22.63;11.32;;;9.50;99.90;;;;;;4968632;28;20205;-42
2023/04/07 10:19:05;;;;;;;25.10;11.63;;;;;;;;;;4970010;28;20166;-41
2023/04/07 10:21:36;;;;;;;20.02;10.27;;;9.50;99.90;;;;;;4968701;28;20194;-43
2023/04/07 10:24:41;;;;;;;18.02;10.75;;;9.60;99.90;;;;;;4974044;28;20167;-43
2023/04/07 10:27:10;;;;;;;17.60;9.52;;;9.50;99.90;;;;;;4975644;28;20594;-44
2023/04/07 10:29:43;;;;;;;14.68;9.82;;;9.60;99.90;;;;;;4969687;28;20185;-42
2023/04/07 10:32:09;;;;;;;17.80;9.63;;;9.70;99.90;;;;;;4969563;28;20254;-43
2023/04/07 10:34:53;;;;;;;14.07;9.02;;;9.60;99.90;;;;;;4969805;28;20181;-41
2023/04/07 10:37:21;;;;;;;19.02;10.23;;;9.50;99.90;;;;;;4969827;28;20270;-41
2023/04/07 10:39:48;;;;;;;20.80;10.57;;;9.60;99.90;;;;;;4968302;28;20166;-43
2023/04/07 10:42:35;;;;;;;19.85;10.70;;;9.60;99.90;;;;;;4969465;28;20181;-41
2023/04/07 10:45:02;;;;;;;17.92;9.80;;;9.50;99.90;;;;;;4969888;28;20166;-41
2023/04/07 10:47:28;;;;;;;11.70;8.52;;;9.60;99.90;;;;;;4969511;28;20169;-41
2023/04/07 10:50:19;;;;;;;13.18;9.32;;;9.70;99.90;;;;;;4969417;28;20174;-41
2023/04/07 10:52:46;;;;;;;17.67;9.68;;;10.00;99.90;;;;;;4969559;28;20709;-41
2023/04/07 10:55:32;;;;;;;12.40;8.65;;;10.20;99.90;;;;;;4968592;28;20255;-41
2023/04/07 10:58:20;;;;;;;11.38;8.88;;;10.20;99.90;;;;;;4950139;28;20226;-41
2023/04/07 11:00:57;;;;;;;14.60;9.40;;;10.50;99.90;;;;;;4950451;28;20243;-41
2023/04/07 11:03:24;;;;;;;11.13;7.70;;;;;;;;;;4950388;28;20169;-41
2023/04/07 11:05:49;;;;;;;12.60;8.00;;;10.80;99.90;;;;;;4948895;28;20202;-43
2023/04/07 11:08:32;;;;;;;14.73;8.82;;;10.80;99.90;;;;;;4949824;28;20250;-41
2023/04/07 11:10:57;;;;;;;11.75;9.40;;;10.60;99.90;;;;;;4950284;28;20177;-44
2023/04/07 11:13:23;;;;;;;15.43;9.13;;;;;;;;;;4949867;28;20808;-45
2023/04/07 11:15:51;;;;;;;16.98;9.38;;;10.60;99.90;;;;;;4950102;28;20253;-42
2023/04/07 11:18:22;;;;;;;12.95;8.57;;;10.50;99.90;;;;;;4950327;28;20171;-42
2023/04/07 11:20:53;;;;;;;13.02;8.65;;;10.40;99.90;;;;;;4949706;28;20529;-46
2023/04/07 11:23:21;;;;;;;15.77;10.15;;;10.50;99.90;;;;;;4949920;28;20558;-45
2023/04/07 11:25:49;;;;;;;15.65;9.35;;;10.70;99.90;;;;;;4965387;28;20181;-43
2023/04/07 11:28:15;;;;;;;17.48;9.68;;;10.60;99.90;;;;;;4971027;28;20177;-45
2023/04/07 11:30:52;;;;;;;17.13;9.15;;;10.70;99.90;;;;;;4972393;28;20256;-45
2023/04/07 11:33:29;;;;;;;12.43;7.93;;;10.80;99.90;;;;;;4972474;28;20181;-45
2023/04/07 11:35:57;;;;;;;13.32;8.10;;;11.00;99.90;;;;;;4972180;28;20173;-42
2023/04/07 11:38:26;;;;;;;10.63;7.25;;;10.90;99.90;;;;;;4972491;28;20508;-45
2023/04/07 11:40:52;;;;;;;12.60;7.72;;;10.90;99.90;;;;;;4971863;28;20664;-44
2023/04/07 11:43:25;;;;;;;11.48;7.15;;;10.90;99.90;;;;;;4972261;28;20173;-46
2023/04/07 11:46:14;;;;;;;14.13;7.68;;;10.70;99.90;;;;;;4971183;28;20165;-42
2023/04/07 11:48:42;;;;;;;11.18;7.30;;;10.80;99.90;;;;;;4972070;28;20204;-43
2023/04/07 11:51:19;;;;;;;14.20;7.45;;;10.80;99.90;;;;;;4971933;28;20505;-44
2023/04/07 11:53:48;;;;;;;13.50;8.20;;;10.80;99.90;;;;;;4975343;28;20191;-44
2023/04/07 11:56:16;;;;;;;14.48;8.07;;;;;;;;;;4991177;28;20720;-41
2023/04/07 11:58:53;;;;;;;17.77;9.10;;;10.80;99.90;;;;;;4991185;28;20185;-41
2023/04/07 12:01:19;;;;;;;16.00;9.48;;;10.60;99.90;;;;;;4991333;28;20168;-44
2023/04/07 12:04:00;;;;;;;18.38;10.65;;;10.70;99.90;;;;;;4975304;28;20177;-44
2023/04/07 12:06:40;;;;;;;15.88;9.60;;;10.70;99.90;;;;;;4972144;28;20184;-44
2023/04/07 12:09:06;;;;;;;16.10;10.25;;;10.70;99.90;;;;;;4971684;28;20229;-44
2023/04/07 12:11:33;;;;;;;16.25;10.23;;;10.70;99.90;;;;;;4972215;28;20636;-41
2023/04/07 12:13:59;;;;;;;18.95;11.40;;;;;;;;;;4972005;28;20299;-44
2023/04/07 12:16:25;;;;;;;14.63;10.40;;;10.70;99.90;;;;;;4971408;28;20208;-44
2023/04/07 12:18:51;;;;;;;17.40;10.68;;;10.70;99.90;;;;;;4971943;28;20178;-44
2023/04/07 12:21:17;;;;;;;19.45;11.93;;;10.90;99.90;;;;;;4971711;28;20247;-44
2023/04/07 12:23:43;;;;;;;16.52;10.57;;;10.80;99.90;;;;;;4971679;28;20177;-41
2023/04/07 12:26:10;;;;;;;15.45;9.98;;;10.80;99.90;;;;;;4971933;28;20185;-44
2023/04/07 12:28:36;;;;;;;16.42;10.02;;;10.80;99.90;;;;;;4971821;28;20239;-42
2023/04/07 12:31:03;;;;;;;17.30;9.90;;;10.80;99.90;;;;;;4970452;28;20179;-43
2023/04/07 12:33:28;;;;;;;15.70;10.38;;;10.90;99.90;;;;;;4985573;28;20212;-44
2023/04/07 12:35:54;;;;;;;15.07;9.80;;;10.90;99.90;;;;;;4972992;28;20663;-45
2023/04/07 12:38:20;;;;;;;14.20;9.13;;;11.00;99.90;;;;;;4971196;28;20586;-42
2023/04/07 12:40:45;;;;;;;16.10;9.43;;;11.20;99.90;;;;;;4970876;28;20169;-44
2023/04/07 12:43:11;;;;;;;15.30;9.15;;;11.40;99.90;;;;;;4971092;28;20280;-42
2023/04/07 12:45:37;;;;;;;15.80;9.50;;;;;;;;;;4971485;28;20173;-45
2023/04/07 12:48:04;;;;;;;17.35;9.15;;;;;;;;;;4971616;28;20174;-41
2023/04/07 12:50:29;;;;;;;15.68;9.70;;;11.50;99.90;;;;;;4971881;28;20528;-45
2023/04/07 12:52:57;;;;;;;17.60;9.75;;;11.50;99.90;;;;;;4971131;28;20166;-44
2023/04/07 12:55:23;;;;;;;16.63;9.43;;;;;;;;;;4971011;28;20182;-44
2023/04/07 12:57:49;;;;;;;12.57;9.00;;;;;;;;;;4971094;28;20323;-45